createdAt,value
2019-02-05T00:02:28.422Z,96796.00
2019-02-05T00:04:59.573Z,96782.00
2019-02-05T00:07:31.150Z,96784.10
2019-02-05T00:10:02.326Z,96782.23
2019-02-05T00:12:33.432Z,96790.27
2019-02-05T00:15:05.163Z,96788.08
2019-02-05T00:17:36.242Z,96790.44
2019-02-05T00:20:08.267Z,96789.73
2019-02-05T00:22:39.587Z,96778.80
2019-02-05T00:25:10.822Z,96778.73
2019-02-05T00:27:41.988Z,96780.72
2019-02-05T00:30:13.624Z,96773.45
2019-02-05T00:32:45.316Z,96777.60
2019-02-05T00:35:16.472Z,96770.45
2019-02-05T00:37:47.811Z,96766.52
2019-02-05T00:40:20.013Z,96768.67
2019-02-05T00:42:51.284Z,96767.39
2019-02-05T00:45:22.812Z,96771.48
2019-02-05T00:47:54.032Z,96770.17
2019-02-05T00:50:25.111Z,96767.52
2019-02-05T00:52:56.298Z,96774.83
2019-02-05T00:55:27.494Z,96774.05
2019-02-05T00:57:58.647Z,96770.22
2019-02-05T01:00:31.424Z,96771.91
2019-02-05T01:03:02.786Z,96772.83
2019-02-05T01:05:34.008Z,96770.63
2019-02-05T01:08:05.452Z,96768.45
2019-02-05T01:10:36.838Z,96762.37
2019-02-05T01:13:08.135Z,96766.39
2019-02-05T01:15:39.323Z,96758.99
2019-02-05T01:18:10.515Z,96761.92
2019-02-05T01:20:41.999Z,96758.55
2019-02-05T01:23:13.170Z,96753.06
2019-02-05T01:25:44.376Z,96750.41
2019-02-05T01:28:15.698Z,96754.73
2019-02-05T01:30:46.975Z,96757.88
2019-02-05T01:33:18.052Z,96758.16
2019-02-05T01:35:49.601Z,96753.87
2019-02-05T01:38:20.751Z,96751.30
2019-02-05T01:40:51.959Z,96754.50
2019-02-05T01:43:23.111Z,96755.08
2019-02-05T01:45:54.282Z,96755.37
2019-02-05T01:48:25.352Z,96757.64
2019-02-05T01:50:56.452Z,96752.72
2019-02-05T01:53:27.744Z,96755.38
2019-02-05T01:55:58.920Z,96754.38
2019-02-05T01:58:30.051Z,96756.93
2019-02-05T02:01:01.343Z,96759.78
2019-02-05T02:03:32.515Z,96755.65
2019-02-05T02:06:03.873Z,96756.58
2019-02-05T02:08:35.028Z,96755.30
2019-02-05T02:11:06.377Z,96748.28
2019-02-05T02:13:37.534Z,96744.27
2019-02-05T02:16:08.787Z,96758.42
2019-02-05T02:18:39.788Z,96748.47
2019-02-05T02:21:11.067Z,96752.34
2019-02-05T02:23:42.207Z,96750.02
2019-02-05T02:26:13.381Z,96737.23
2019-02-05T02:28:44.836Z,96743.57
2019-02-05T02:31:16.067Z,96741.14
2019-02-05T02:33:47.134Z,96741.05
2019-02-05T02:36:18.296Z,96738.55
2019-02-05T02:38:49.473Z,96743.20
2019-02-05T02:41:21.944Z,96746.44
2019-02-05T02:43:53.044Z,96747.43
2019-02-05T02:46:24.118Z,96744.05
2019-02-05T02:48:55.180Z,96747.85
2019-02-05T02:51:26.254Z,96745.14
2019-02-05T02:53:57.583Z,96737.86
2019-02-05T02:56:28.826Z,96749.50
2019-02-05T02:58:59.891Z,96749.11
2019-02-05T03:01:30.969Z,96751.35
2019-02-05T03:04:02.038Z,96748.91
2019-02-05T03:06:33.975Z,96755.41
2019-02-05T03:09:10.391Z,96756.58
2019-02-05T03:11:41.616Z,96750.39
2019-02-05T03:14:12.691Z,96758.17
2019-02-05T03:16:43.837Z,96768.22
2019-02-05T03:19:15.099Z,96763.12
2019-02-05T03:21:46.695Z,96767.22
2019-02-05T03:24:17.850Z,96764.43
2019-02-05T03:26:49.084Z,96768.55
2019-02-05T03:29:20.358Z,96763.31
2019-02-05T03:31:51.623Z,96764.89
2019-02-05T03:34:22.713Z,96765.45
2019-02-05T03:36:53.989Z,96761.63
2019-02-05T03:39:25.169Z,96762.50
2019-02-05T03:41:56.341Z,96755.51
2019-02-05T03:44:27.480Z,96756.44
2019-02-05T03:46:58.745Z,96752.38
2019-02-05T03:49:30.963Z,96751.55
2019-02-05T03:52:11.323Z,96757.38
2019-02-05T03:55:22.642Z,96765.12
2019-02-05T03:58:56.122Z,96762.44
2019-02-05T04:01:55.765Z,96768.89
2019-02-05T04:05:08.906Z,96757.77
2019-02-05T04:08:19.346Z,96754.78
2019-02-05T04:11:30.413Z,96759.91
2019-02-05T04:14:40.206Z,96758.84
2019-02-05T04:17:44.317Z,96755.67
2019-02-05T04:20:52.572Z,96751.95
2019-02-05T04:23:48.154Z,96753.11
2019-02-05T04:26:41.238Z,96745.52
2019-02-05T04:29:47.979Z,96742.34
2019-02-05T04:32:36.695Z,96737.41
2019-02-05T04:35:30.635Z,96742.89
2019-02-05T04:38:48.762Z,96747.48
2019-02-05T04:42:01.381Z,96749.78
2019-02-05T04:44:58.003Z,96750.30
2019-02-05T04:48:07.003Z,96745.73
2019-02-05T04:51:12.204Z,96739.52
2019-02-05T04:54:12.925Z,96748.89
2019-02-05T04:56:55.943Z,96748.09
2019-02-05T04:59:50.988Z,96745.95
2019-02-05T05:02:46.760Z,96734.19
2019-02-05T05:05:56.365Z,96728.02
2019-02-05T05:08:54.326Z,96728.61
2019-02-05T05:11:25.722Z,96723.08
2019-02-05T05:13:56.909Z,96722.06
2019-02-05T05:16:28.105Z,96727.92
2019-02-05T05:18:59.607Z,96735.30
2019-02-05T05:21:32.427Z,96743.53
2019-02-05T05:24:03.953Z,96746.13
2019-02-05T05:26:35.133Z,96751.39
2019-02-05T05:29:06.714Z,96751.76
2019-02-05T05:31:37.945Z,96756.92
2019-02-05T05:34:09.090Z,96753.19
2019-02-05T05:36:49.342Z,96756.39
2019-02-05T05:39:20.925Z,96757.11
2019-02-05T05:41:52.071Z,96755.02
2019-02-05T05:44:23.255Z,96766.10
2019-02-05T05:46:54.437Z,96756.69
2019-02-05T05:49:25.773Z,96759.92
2019-02-05T05:51:56.852Z,96757.51
2019-02-05T05:56:57.587Z,96764.43
2019-02-05T05:59:28.801Z,96755.47
2019-02-05T06:01:59.980Z,96752.66
2019-02-05T06:04:31.177Z,96762.64
2019-02-05T06:07:02.287Z,96759.50
2019-02-05T06:09:33.725Z,96756.72
2019-02-05T06:12:04.983Z,96753.09
2019-02-05T06:14:36.275Z,96760.25
2019-02-05T06:17:07.835Z,96762.50
2019-02-05T06:19:38.988Z,96774.56
2019-02-05T06:22:10.249Z,96779.81
2019-02-05T06:24:41.435Z,96775.69
2019-02-05T06:27:12.715Z,96772.47
2019-02-05T06:29:43.889Z,96778.12
2019-02-05T06:32:15.161Z,96782.16
2019-02-05T06:34:46.343Z,96772.53
2019-02-05T06:37:17.615Z,96778.34
2019-02-05T06:39:48.685Z,96784.36
2019-02-05T06:42:19.882Z,96796.62
2019-02-05T06:44:51.244Z,96801.17
2019-02-05T06:47:22.428Z,96803.76
2019-02-05T06:49:53.638Z,96809.23
2019-02-05T06:52:24.849Z,96811.78
2019-02-05T06:54:55.983Z,96812.33
2019-02-05T06:57:27.070Z,96813.47
2019-02-05T06:59:58.080Z,96813.39
2019-02-05T07:02:29.253Z,96815.98
2019-02-05T07:05:00.453Z,96821.87
2019-02-05T07:07:31.535Z,96825.48
2019-02-05T07:10:02.755Z,96829.44
2019-02-05T07:12:34.441Z,96834.95
2019-02-05T07:15:06.744Z,96835.34
2019-02-05T07:17:48.924Z,96843.19
2019-02-05T07:20:12.922Z,96843.67
2019-02-05T07:22:44.364Z,96839.73
2019-02-05T07:25:17.243Z,96842.20
2019-02-05T07:27:48.514Z,96845.09
2019-02-05T07:30:22.530Z,96856.45
2019-02-05T07:32:53.618Z,96858.00
2019-02-05T07:35:24.788Z,96861.96
2019-02-05T07:37:56.957Z,96862.56
2019-02-05T07:40:28.146Z,96860.56
2019-02-05T07:42:59.362Z,96867.47
2019-02-05T07:45:30.498Z,96861.97
2019-02-05T07:48:01.574Z,96876.56
2019-02-05T07:50:32.787Z,96877.09
2019-02-05T07:53:03.951Z,96874.11
2019-02-05T07:55:36.027Z,96873.66
2019-02-05T07:58:07.189Z,96869.37
2019-02-05T08:00:38.337Z,96869.67
2019-02-05T08:03:09.344Z,96873.05
2019-02-05T08:05:40.482Z,96872.86
2019-02-05T08:08:12.422Z,96886.52
2019-02-05T08:10:43.636Z,96887.69
2019-02-05T08:13:14.877Z,96883.63
2019-02-05T08:15:46.022Z,96891.25
2019-02-05T08:18:17.205Z,96898.45
2019-02-05T08:20:48.357Z,96897.27
2019-02-05T08:23:19.387Z,96898.64
2019-02-05T08:25:51.523Z,96898.91
2019-02-05T08:28:22.779Z,96898.74
2019-02-05T08:30:53.928Z,96902.42
2019-02-05T08:33:25.254Z,96904.97
2019-02-05T08:35:56.487Z,96896.98
2019-02-05T08:38:27.909Z,96902.67
2019-02-05T08:40:59.085Z,96902.09
2019-02-05T08:43:30.325Z,96905.03
2019-02-05T08:46:01.495Z,96900.36
2019-02-05T08:48:32.709Z,96898.64
2019-02-05T08:51:03.965Z,96899.36
2019-02-05T08:53:35.269Z,96910.89
2019-02-05T08:56:06.460Z,96899.75
2019-02-05T08:58:37.591Z,96897.86
2019-02-05T09:01:08.839Z,96904.83
2019-02-05T09:03:40.067Z,96905.55
2019-02-05T09:06:11.159Z,96910.81
2019-02-05T09:08:42.709Z,96915.55
2019-02-05T09:11:14.013Z,96922.00
2019-02-05T09:13:45.202Z,96918.21
2019-02-05T09:16:16.504Z,96925.00
2019-02-05T09:18:47.686Z,96920.22
2019-02-05T09:21:19.142Z,96914.87
2019-02-05T09:23:50.243Z,96916.00
2019-02-05T09:26:21.408Z,96917.70
2019-02-05T09:28:52.657Z,96919.93
2019-02-05T09:31:23.792Z,96922.11
2019-02-05T09:33:54.880Z,96923.17
2019-02-05T09:36:26.310Z,96926.16
2019-02-05T09:38:57.419Z,96921.96
2019-02-05T09:41:28.558Z,96915.92
2019-02-05T09:44:00.080Z,96923.25
2019-02-05T09:46:31.151Z,96926.08
2019-02-05T09:49:02.345Z,96929.75
2019-02-05T09:51:33.466Z,96933.05
2019-02-05T09:54:04.933Z,96932.89
2019-02-05T09:56:36.158Z,96936.13
2019-02-05T09:59:07.336Z,96940.67
2019-02-05T10:01:38.666Z,96940.98
2019-02-05T10:04:10.144Z,96940.00
2019-02-05T10:06:41.451Z,96944.32
2019-02-05T10:09:12.881Z,96948.30
2019-02-05T10:11:44.148Z,96948.12
2019-02-05T10:14:15.367Z,96954.48
2019-02-05T10:16:46.541Z,96961.77
2019-02-05T10:19:17.916Z,96960.04
2019-02-05T10:21:49.010Z,96953.77
2019-02-05T10:24:20.197Z,96956.70
2019-02-05T10:26:51.254Z,96956.97
2019-02-05T10:29:22.427Z,96958.39
2019-02-05T10:31:53.777Z,96953.27
2019-02-05T10:34:33.893Z,96952.94
2019-02-05T10:36:57.831Z,96954.36
2019-02-05T10:39:29.004Z,96948.60
2019-02-05T10:42:00.262Z,96943.39
2019-02-05T10:44:31.421Z,96939.55
2019-02-05T10:47:02.555Z,96936.16
2019-02-05T10:49:33.744Z,96927.83
2019-02-05T10:52:04.903Z,96917.41
2019-02-05T10:54:36.109Z,96907.97
2019-02-05T10:57:07.187Z,96911.41
2019-02-05T10:59:38.666Z,96908.88
2019-02-05T11:02:09.880Z,96908.94
2019-02-05T11:04:41.028Z,96916.55
2019-02-05T11:07:12.095Z,96897.84
2019-02-05T11:09:43.322Z,96904.02
2019-02-05T11:12:14.501Z,96910.62
2019-02-05T11:14:45.958Z,96914.65
2019-02-05T11:17:17.089Z,96913.95
2019-02-05T11:19:48.174Z,96919.81
2019-02-05T11:22:19.664Z,96908.42
2019-02-05T11:24:50.716Z,96907.52
2019-02-05T11:27:21.861Z,96904.59
2019-02-05T11:29:53.860Z,96901.55
2019-02-05T11:32:24.952Z,96897.88
2019-02-05T11:34:55.960Z,96893.61
2019-02-05T11:37:27.213Z,96901.91
2019-02-05T11:39:58.396Z,96889.97
2019-02-05T11:42:29.844Z,96881.44
2019-02-05T11:45:01.038Z,96876.39
2019-02-05T11:47:33.515Z,96873.56
2019-02-05T11:50:06.256Z,96868.37
2019-02-05T11:52:37.402Z,96861.39
2019-02-05T11:55:10.792Z,96858.88
2019-02-05T11:57:41.926Z,96849.88
2019-02-05T12:00:18.798Z,96853.31
2019-02-05T12:02:49.933Z,96853.21
2019-02-05T12:05:21.010Z,96853.31
2019-02-05T12:07:52.222Z,96846.64
2019-02-05T12:10:23.384Z,96846.52
2019-02-05T12:12:54.459Z,96847.81
2019-02-05T12:15:25.692Z,96846.41
2019-02-05T12:17:57.815Z,96850.55
2019-02-05T12:20:29.007Z,96844.94
2019-02-05T12:23:00.630Z,96846.71
2019-02-05T12:25:31.825Z,96857.41
2019-02-05T12:28:02.958Z,96858.09
2019-02-05T12:30:44.556Z,96860.61
2019-02-05T12:33:08.437Z,96863.06
2019-02-05T12:35:39.675Z,96862.45
2019-02-05T12:38:12.304Z,96861.53
2019-02-05T12:40:43.687Z,96857.05
2019-02-05T12:43:14.857Z,96856.59
2019-02-05T12:45:47.738Z,96863.48
2019-02-05T12:48:18.931Z,96862.11
2019-02-05T12:50:50.465Z,96849.81
2019-02-05T12:53:21.625Z,96850.63
2019-02-05T12:55:52.780Z,96842.80
2019-02-05T12:58:23.925Z,96844.38
2019-02-05T13:00:59.818Z,96845.49
2019-02-05T13:03:28.428Z,96839.63
2019-02-05T13:05:59.518Z,96835.34
2019-02-05T13:08:30.676Z,96834.30
2019-02-05T13:11:01.694Z,96834.44
2019-02-05T13:13:32.846Z,96830.43
2019-02-05T13:16:04.480Z,96837.70
2019-02-05T13:18:35.626Z,96851.31
2019-02-05T13:21:06.866Z,96849.91
2019-02-05T13:23:37.992Z,96845.56
2019-02-05T13:26:09.644Z,96844.95
2019-02-05T13:28:40.697Z,96837.07
2019-02-05T13:31:11.921Z,96840.47
2019-02-05T13:33:43.857Z,96846.66
2019-02-05T13:36:14.943Z,96856.13
2019-02-05T13:38:47.062Z,96853.81
2019-02-05T13:41:18.614Z,96861.40
2019-02-05T13:43:49.820Z,96859.80
2019-02-05T13:46:20.980Z,96878.52
2019-02-05T13:48:52.015Z,96879.19
2019-02-05T13:51:23.202Z,96881.78
2019-02-05T13:53:54.307Z,96887.41
2019-02-05T13:56:25.505Z,96885.19
2019-02-05T13:58:56.574Z,96886.88
2019-02-05T14:01:27.733Z,96893.69
2019-02-05T14:03:58.804Z,96895.20
2019-02-05T14:06:30.034Z,96892.25
2019-02-05T14:09:10.247Z,96896.23
2019-02-05T14:11:35.864Z,96901.91
2019-02-05T14:14:07.019Z,96896.76
2019-02-05T14:16:38.194Z,96889.71
2019-02-05T14:19:09.390Z,96905.36
2019-02-05T14:21:40.743Z,96900.95
2019-02-05T14:24:11.880Z,96904.69
2019-02-05T14:26:43.128Z,96909.34
2019-02-05T14:29:14.287Z,96920.81
2019-02-05T14:31:45.452Z,96920.57
2019-02-05T14:34:16.918Z,96913.71
2019-02-05T14:36:48.132Z,96914.61
2019-02-05T14:39:20.173Z,96912.05
2019-02-05T14:41:51.382Z,96917.01
2019-02-05T14:44:22.570Z,96907.73
2019-02-05T14:46:53.916Z,96910.02
2019-02-05T14:49:24.977Z,96917.67
2019-02-05T14:51:57.896Z,96915.05
2019-02-05T14:54:28.975Z,96918.66
2019-02-05T14:57:00.095Z,96925.66
2019-02-05T14:59:31.486Z,96924.05
2019-02-05T15:02:02.559Z,96923.94
2019-02-05T15:04:33.725Z,96921.18
2019-02-05T15:07:06.152Z,96925.12
2019-02-05T15:09:37.320Z,96916.27
2019-02-05T15:12:08.832Z,96924.50
2019-02-05T15:14:39.898Z,96925.39
2019-02-05T15:17:11.033Z,96926.78
2019-02-05T15:19:42.346Z,96930.15
2019-02-05T15:22:13.537Z,96933.05
2019-02-05T15:24:45.067Z,96938.41
2019-02-05T15:27:16.262Z,96925.23
2019-02-05T15:29:47.408Z,96925.20
2019-02-05T15:32:37.507Z,96929.20
2019-02-05T15:35:09.305Z,96926.81
2019-02-05T15:37:40.466Z,96931.44
2019-02-05T15:40:13.187Z,96933.03
2019-02-05T15:42:44.440Z,96926.51
2019-02-05T15:45:16.791Z,96917.33
2019-02-05T15:47:47.911Z,96921.63
2019-02-05T15:50:19.358Z,96920.03
2019-02-05T15:52:50.525Z,96931.84
2019-02-05T15:55:23.146Z,96919.45
2019-02-05T15:57:54.396Z,96917.64
2019-02-05T16:00:25.995Z,96918.61
2019-02-05T16:02:57.441Z,96918.84
2019-02-05T16:05:28.637Z,96919.45
2019-02-05T16:08:00.141Z,96919.77
2019-02-05T16:10:31.375Z,96924.31
2019-02-05T16:13:03.277Z,96922.84
2019-02-05T16:15:34.554Z,96922.25
2019-02-05T16:18:06.673Z,96919.14
2019-02-05T16:20:38.489Z,96917.75
2019-02-05T16:23:09.717Z,96906.48
2019-02-05T16:25:42.037Z,96912.14
2019-02-05T16:28:13.177Z,96914.36
2019-02-05T16:30:45.603Z,96909.48
2019-02-05T16:33:16.741Z,96917.25
2019-02-05T16:35:47.804Z,96931.45
2019-02-05T16:38:19.477Z,96931.60
2019-02-05T16:40:52.319Z,96935.90
2019-02-05T16:43:24.157Z,96934.02
2019-02-05T16:45:55.371Z,96940.14
2019-02-05T16:48:26.540Z,96933.66
2019-02-05T16:50:58.244Z,96928.85
2019-02-05T16:53:29.460Z,96930.05
2019-02-05T16:56:00.677Z,96934.74
2019-02-05T16:58:31.812Z,96937.17
2019-02-05T17:01:03.405Z,96933.84
2019-02-05T17:03:34.963Z,96933.23
2019-02-05T17:06:06.414Z,96927.99
2019-02-05T17:08:37.580Z,96935.42
2019-02-05T17:11:08.676Z,96926.07
2019-02-05T17:13:39.687Z,96928.33
2019-02-05T17:16:10.934Z,96936.05
2019-02-05T17:18:42.113Z,96940.38
2019-02-05T17:21:13.483Z,96938.55
2019-02-05T17:23:44.573Z,96930.72
2019-02-05T17:26:16.628Z,96932.12
2019-02-05T17:28:47.875Z,96935.73
2019-02-05T17:31:19.024Z,96935.80
2019-02-05T17:33:50.040Z,96939.52
2019-02-05T17:36:21.126Z,96941.46
2019-02-05T17:38:52.245Z,96941.42
2019-02-05T17:41:24.562Z,96945.13
2019-02-05T17:43:55.746Z,96944.58
2019-02-05T17:46:27.198Z,96936.42
2019-02-05T17:48:58.344Z,96934.64
2019-02-05T17:51:29.432Z,96937.80
2019-02-05T17:54:00.634Z,96939.76
2019-02-05T17:56:31.901Z,96942.69
2019-02-05T17:59:02.994Z,96949.53
2019-02-05T18:01:34.207Z,96946.66
2019-02-05T18:04:05.721Z,96946.25
2019-02-05T18:06:36.929Z,96944.19
2019-02-05T18:09:09.416Z,96914.20
2019-02-05T18:11:40.593Z,96952.05
2019-02-05T18:14:11.815Z,96952.83
2019-02-05T18:16:45.255Z,96952.09
2019-02-05T18:19:15.846Z,96961.38
2019-02-05T18:21:47.315Z,96956.48
2019-02-05T18:24:18.421Z,96949.81
2019-02-05T18:26:49.432Z,96948.82
2019-02-05T18:29:20.605Z,96948.77
2019-02-05T18:31:51.780Z,96953.83
2019-02-05T18:34:23.222Z,96956.39
2019-02-05T18:36:54.449Z,96953.03
2019-02-05T18:39:25.631Z,96950.88
2019-02-05T18:41:57.732Z,96953.77
2019-02-05T18:44:29.145Z,96954.63
2019-02-05T18:47:00.447Z,96955.05
2019-02-05T18:49:32.304Z,96955.39
2019-02-05T18:52:03.464Z,96954.55
2019-02-05T18:54:34.709Z,96955.98
2019-02-05T18:57:06.248Z,96957.53
2019-02-05T18:59:37.429Z,96960.77
2019-02-05T19:02:08.688Z,96965.20
2019-02-05T19:04:40.162Z,96960.04
2019-02-05T19:07:11.250Z,96966.77
2019-02-05T19:09:42.352Z,96970.25
2019-02-05T19:12:13.508Z,96967.15
2019-02-05T19:14:46.034Z,96969.40
2019-02-05T19:17:17.177Z,96976.66
2019-02-05T19:19:48.390Z,96979.27
2019-02-05T19:22:19.421Z,96977.77
2019-02-05T19:24:58.159Z,96982.47
2019-02-05T19:27:29.328Z,96980.62
2019-02-05T19:30:00.407Z,96986.13
2019-02-05T19:32:31.663Z,96983.26
2019-02-05T19:35:02.821Z,96987.95
2019-02-05T19:37:33.902Z,96982.41
2019-02-05T19:40:05.743Z,96986.42
2019-02-05T19:42:37.801Z,96984.73
2019-02-05T19:45:34.578Z,96991.22
2019-02-05T19:48:07.381Z,96991.13
2019-02-05T19:50:38.593Z,97000.16
2019-02-05T19:53:09.754Z,97004.97
2019-02-05T19:55:40.843Z,97008.24
2019-02-05T19:58:12.112Z,97015.22
2019-02-05T20:00:44.258Z,97011.66
2019-02-05T20:03:15.741Z,97020.87
2019-02-05T20:05:46.890Z,97020.11
2019-02-05T20:08:18.081Z,97023.98
2019-02-05T20:10:49.254Z,97020.30
2019-02-05T20:13:20.271Z,97012.05
2019-02-05T20:15:51.427Z,97016.50
2019-02-05T20:18:22.520Z,97017.22
2019-02-05T20:20:53.704Z,97021.66
2019-02-05T20:23:24.778Z,97014.27
2019-02-05T20:25:56.790Z,97011.14
2019-02-05T20:28:27.908Z,97005.48
2019-02-05T20:30:59.351Z,96999.47
2019-02-05T20:33:30.455Z,97006.00
2019-02-05T20:36:01.666Z,96993.80
2019-02-05T20:38:32.747Z,96998.97
2019-02-05T20:41:03.875Z,96992.27
2019-02-05T20:43:34.990Z,96993.91
2019-02-05T20:46:06.305Z,97000.39
2019-02-05T20:48:37.387Z,96998.67
2019-02-05T20:51:08.624Z,96994.09
2019-02-05T20:53:39.743Z,96995.25
2019-02-05T20:56:10.905Z,96997.23
2019-02-05T20:58:42.325Z,96994.80
2019-02-05T21:01:13.418Z,96994.00
2019-02-05T21:03:44.736Z,96998.00
2019-02-05T21:06:15.909Z,97001.44
2019-02-05T21:08:47.070Z,96996.52
2019-02-05T21:11:18.177Z,96998.14
2019-02-05T21:13:49.439Z,97003.63
2019-02-05T21:16:20.477Z,97008.63
2019-02-05T21:18:51.659Z,97007.58
2019-02-05T21:21:22.907Z,97009.57
2019-02-05T21:23:54.066Z,97005.52
2019-02-05T21:26:25.154Z,97014.10
2019-02-05T21:28:56.296Z,97006.47
2019-02-05T21:31:27.471Z,97012.25
2019-02-05T21:33:58.795Z,97007.47
2019-02-05T21:36:29.971Z,97009.38
2019-02-05T21:39:01.244Z,97006.44
2019-02-05T21:41:32.629Z,97011.06
2019-02-05T21:44:04.133Z,97008.64
2019-02-05T21:46:35.308Z,97005.01
2019-02-05T21:49:06.462Z,97001.84
2019-02-05T21:51:40.883Z,97007.80
2019-02-05T21:54:12.541Z,97001.19
2019-02-05T21:56:43.551Z,96996.69
2019-02-05T21:59:14.551Z,96999.53
2019-02-05T22:01:45.847Z,96998.34
2019-02-05T22:04:26.692Z,97005.62
2019-02-05T22:06:49.880Z,96993.64
2019-02-05T22:09:21.026Z,96998.32
2019-02-05T22:11:52.227Z,96987.83
2019-02-05T22:14:23.308Z,96990.11
2019-02-05T22:16:54.407Z,96991.24
2019-02-05T22:19:27.214Z,96980.84
2019-02-05T22:21:58.235Z,96980.88
2019-02-05T22:24:29.392Z,96971.69
2019-02-05T22:27:00.934Z,96970.22
2019-02-05T22:29:32.027Z,96973.08
2019-02-05T22:32:03.191Z,96975.25
2019-02-05T22:34:39.414Z,96976.52
2019-02-05T22:37:08.272Z,96979.67
2019-02-05T22:39:39.807Z,96980.99
2019-02-05T22:42:10.978Z,96980.91
2019-02-05T22:44:42.349Z,96982.03
2019-02-05T22:47:13.470Z,96979.11
2019-02-05T22:49:44.550Z,96981.10
2019-02-05T22:52:15.567Z,96983.37
2019-02-05T22:54:46.859Z,96981.20
2019-02-05T22:57:17.893Z,96981.64
2019-02-05T22:59:49.068Z,96978.75
2019-02-05T23:02:20.369Z,96966.53
2019-02-05T23:05:29.738Z,96974.33
2019-02-05T23:08:00.898Z,96971.11
2019-02-05T23:10:45.420Z,96961.64
2019-02-05T23:13:18.528Z,96954.33
2019-02-05T23:15:51.698Z,96954.57
2019-02-05T23:18:23.080Z,96956.92
2019-02-05T23:20:54.284Z,96954.67
2019-02-05T23:23:25.464Z,96961.12
2019-02-05T23:25:56.713Z,96963.12
2019-02-05T23:28:27.887Z,96960.33
2019-02-05T23:30:59.032Z,96957.64
2019-02-05T23:33:30.283Z,96960.56
2019-02-05T23:36:01.298Z,96967.73
2019-02-05T23:38:33.421Z,96960.02
2019-02-05T23:41:04.576Z,96953.47
2019-02-05T23:43:36.091Z,96945.89
2019-02-05T23:46:07.320Z,96943.06
2019-02-05T23:48:38.540Z,96949.53
2019-02-05T23:51:09.906Z,96946.16
2019-02-05T23:53:41.334Z,96947.27
2019-02-05T23:56:12.779Z,96948.42
2019-02-05T23:58:44.789Z,96943.69
